sensor_id;sensor_type;location;lat;lon;timestamp;P1;durP1;ratioP1;P2;durP2;ratioP2
74471;SDS011;62920;53.572;10.050;2022-11-20T00:01:32;4.18;;;1.98;;
74471;SDS011;62920;53.572;10.050;2022-11-20T00:03:58;4.57;;;2.45;;
74471;SDS011;62920;53.572;10.050;2022-11-20T00:06:24;4.65;;;2.25;;
74471;SDS011;62920;53.572;10.050;2022-11-20T00:08:50;6.63;;;2.00;;
74471;SDS011;62920;53.572;10.050;2022-11-20T00:11:16;5.55;;;2.13;;
74471;SDS011;62920;53.572;10.050;2022-11-20T00:13:47;6.57;;;2.40;;
74471;SDS011;62920;53.572;10.050;2022-11-20T00:16:15;4.93;;;2.20;;
74471;SDS011;62920;53.572;10.050;2022-11-20T00:18:42;7.20;;;2.45;;
74471;SDS011;62920;53.572;10.050;2022-11-20T00:21:10;4.93;;;2.05;;
74471;SDS011;62920;53.572;10.050;2022-11-20T00:23:38;5.30;;;2.45;;
74471;SDS011;62920;53.572;10.050;2022-11-20T00:26:04;5.13;;;2.28;;
74471;SDS011;62920;53.572;10.050;2022-11-20T00:28:30;6.38;;;2.22;;
74471;SDS011;62920;53.572;10.050;2022-11-20T00:31:02;4.03;;;2.25;;
74471;SDS011;62920;53.572;10.050;2022-11-20T00:33:29;4.68;;;1.83;;
74471;SDS011;62920;53.572;10.050;2022-11-20T00:35:59;6.90;;;2.10;;
74471;SDS011;62920;53.572;10.050;2022-11-20T00:38:25;4.28;;;2.10;;
74471;SDS011;62920;53.572;10.050;2022-11-20T00:40:54;6.60;;;2.10;;
74471;SDS011;62920;53.572;10.050;2022-11-20T00:43:23;5.05;;;2.28;;
74471;SDS011;62920;53.572;10.050;2022-11-20T00:45:49;4.13;;;2.10;;
74471;SDS011;62920;53.572;10.050;2022-11-20T00:48:15;5.20;;;1.98;;
74471;SDS011;62920;53.572;10.050;2022-11-20T00:50:40;6.35;;;1.70;;
74471;SDS011;62920;53.572;10.050;2022-11-20T00:53:06;5.88;;;2.50;;
74471;SDS011;62920;53.572;10.050;2022-11-20T00:55:31;4.22;;;2.00;;
74471;SDS011;62920;53.572;10.050;2022-11-20T00:57:57;4.85;;;1.80;;
74471;SDS011;62920;53.572;10.050;2022-11-20T01:00:22;7.47;;;2.42;;
74471;SDS011;62920;53.572;10.050;2022-11-20T01:02:47;4.80;;;1.90;;
74471;SDS011;62920;53.572;10.050;2022-11-20T01:05:13;6.75;;;2.58;;
74471;SDS011;62920;53.572;10.050;2022-11-20T01:07:38;6.18;;;1.90;;
74471;SDS011;62920;53.572;10.050;2022-11-20T01:10:03;4.55;;;1.95;;
74471;SDS011;62920;53.572;10.050;2022-11-20T01:12:29;13.27;;;2.17;;
74471;SDS011;62920;53.572;10.050;2022-11-20T01:14:54;5.82;;;2.20;;
74471;SDS011;62920;53.572;10.050;2022-11-20T01:17:20;5.18;;;2.25;;
74471;SDS011;62920;53.572;10.050;2022-11-20T01:19:47;6.90;;;2.10;;
74471;SDS011;62920;53.572;10.050;2022-11-20T01:22:14;4.85;;;1.80;;
74471;SDS011;62920;53.572;10.050;2022-11-20T01:24:39;4.90;;;1.98;;
74471;SDS011;62920;53.572;10.050;2022-11-20T01:27:04;4.95;;;2.20;;
74471;SDS011;62920;53.572;10.050;2022-11-20T01:29:30;4.15;;;1.98;;
74471;SDS011;62920;53.572;10.050;2022-11-20T01:31:55;6.32;;;2.00;;
74471;SDS011;62920;53.572;10.050;2022-11-20T01:34:21;4.68;;;2.25;;
74471;SDS011;62920;53.572;10.050;2022-11-20T01:36:47;4.38;;;2.10;;
74471;SDS011;62920;53.572;10.050;2022-11-20T01:39:17;4.25;;;2.13;;
74471;SDS011;62920;53.572;10.050;2022-11-20T01:41:47;5.63;;;1.90;;
74471;SDS011;62920;53.572;10.050;2022-11-20T01:47:14;4.45;;;2.33;;
74471;SDS011;62920;53.572;10.050;2022-11-20T01:49:42;6.20;;;2.50;;
74471;SDS011;62920;53.572;10.050;2022-11-20T01:52:14;7.43;;;2.13;;
74471;SDS011;62920;53.572;10.050;2022-11-20T01:54:44;6.93;;;2.38;;
74471;SDS011;62920;53.572;10.050;2022-11-20T01:57:14;7.28;;;1.95;;
74471;SDS011;62920;53.572;10.050;2022-11-20T01:59:41;4.97;;;2.30;;
74471;SDS011;62920;53.572;10.050;2022-11-20T02:02:10;4.47;;;2.00;;
74471;SDS011;62920;53.572;10.050;2022-11-20T02:04:35;5.28;;;2.33;;
74471;SDS011;62920;53.572;10.050;2022-11-20T02:07:01;5.43;;;2.50;;
74471;SDS011;62920;53.572;10.050;2022-11-20T02:09:27;5.88;;;2.63;;
74471;SDS011;62920;53.572;10.050;2022-11-20T02:11:53;7.80;;;2.33;;
74471;SDS011;62920;53.572;10.050;2022-11-20T02:14:19;3.90;;;1.85;;
74471;SDS011;62920;53.572;10.050;2022-11-20T02:16:45;4.55;;;2.40;;
74471;SDS011;62920;53.572;10.050;2022-11-20T02:22:14;3.90;;;2.00;;
74471;SDS011;62920;53.572;10.050;2022-11-20T02:24:44;4.88;;;2.20;;
74471;SDS011;62920;53.572;10.050;2022-11-20T02:27:11;6.43;;;2.33;;
74471;SDS011;62920;53.572;10.050;2022-11-20T02:32:28;6.10;;;2.30;;
74471;SDS011;62920;53.572;10.050;2022-11-20T02:34:58;5.60;;;2.33;;
74471;SDS011;62920;53.572;10.050;2022-11-20T02:37:33;4.78;;;1.95;;
74471;SDS011;62920;53.572;10.050;2022-11-20T02:39:59;4.32;;;2.15;;
74471;SDS011;62920;53.572;10.050;2022-11-20T02:42:25;6.05;;;2.20;;
74471;SDS011;62920;53.572;10.050;2022-11-20T02:44:50;6.32;;;2.50;;
74471;SDS011;62920;53.572;10.050;2022-11-20T02:47:15;5.38;;;2.13;;
74471;SDS011;62920;53.572;10.050;2022-11-20T02:49:41;5.53;;;1.98;;
74471;SDS011;62920;53.572;10.050;2022-11-20T02:52:06;7.97;;;2.22;;
74471;SDS011;62920;53.572;10.050;2022-11-20T02:54:31;4.43;;;2.03;;
74471;SDS011;62920;53.572;10.050;2022-11-20T02:56:57;5.30;;;1.63;;
74471;SDS011;62920;53.572;10.050;2022-11-20T02:59:22;6.90;;;2.30;;
74471;SDS011;62920;53.572;10.050;2022-11-20T03:01:48;3.97;;;2.30;;
74471;SDS011;62920;53.572;10.050;2022-11-20T03:04:13;7.05;;;1.80;;
74471;SDS011;62920;53.572;10.050;2022-11-20T03:06:38;4.88;;;2.28;;
74471;SDS011;62920;53.572;10.050;2022-11-20T03:09:04;5.70;;;2.15;;
74471;SDS011;62920;53.572;10.050;2022-11-20T03:11:29;4.68;;;2.42;;
74471;SDS011;62920;53.572;10.050;2022-11-20T03:13:54;9.10;;;2.38;;
74471;SDS011;62920;53.572;10.050;2022-11-20T03:16:20;8.48;;;2.88;;
74471;SDS011;62920;53.572;10.050;2022-11-20T03:21:12;6.13;;;1.95;;
74471;SDS011;62920;53.572;10.050;2022-11-20T03:23:39;4.10;;;1.98;;
74471;SDS011;62920;53.572;10.050;2022-11-20T03:26:15;4.78;;;2.20;;
74471;SDS011;62920;53.572;10.050;2022-11-20T03:28:42;4.15;;;1.88;;
74471;SDS011;62920;53.572;10.050;2022-11-20T03:31:12;5.90;;;2.00;;
74471;SDS011;62920;53.572;10.050;2022-11-20T03:33:40;4.10;;;2.10;;
74471;SDS011;62920;53.572;10.050;2022-11-20T03:36:07;6.90;;;2.20;;
74471;SDS011;62920;53.572;10.050;2022-11-20T03:38:33;4.43;;;2.25;;
74471;SDS011;62920;53.572;10.050;2022-11-20T03:40:59;4.55;;;2.15;;
74471;SDS011;62920;53.572;10.050;2022-11-20T03:43:26;6.25;;;2.03;;
74471;SDS011;62920;53.572;10.050;2022-11-20T03:45:52;5.22;;;2.20;;
74471;SDS011;62920;53.572;10.050;2022-11-20T03:48:17;4.25;;;2.05;;
74471;SDS011;62920;53.572;10.050;2022-11-20T03:50:42;4.28;;;2.10;;
74471;SDS011;62920;53.572;10.050;2022-11-20T03:53:08;4.35;;;1.90;;
74471;SDS011;62920;53.572;10.050;2022-11-20T03:55:33;4.03;;;2.03;;
74471;SDS011;62920;53.572;10.050;2022-11-20T03:57:58;4.82;;;2.30;;
74471;SDS011;62920;53.572;10.050;2022-11-20T04:00:24;5.97;;;2.33;;
74471;SDS011;62920;53.572;10.050;2022-11-20T04:02:49;4.07;;;1.70;;
74471;SDS011;62920;53.572;10.050;2022-11-20T04:05:14;4.93;;;2.38;;
74471;SDS011;62920;53.572;10.050;2022-11-20T04:07:40;4.03;;;1.92;;
74471;SDS011;62920;53.572;10.050;2022-11-20T04:10:05;4.28;;;1.80;;
74471;SDS011;62920;53.572;10.050;2022-11-20T04:12:31;3.88;;;2.00;;
74471;SDS011;62920;53.572;10.050;2022-11-20T04:14:57;4.65;;;2.40;;
74471;SDS011;62920;53.572;10.050;2022-11-20T04:17:22;4.10;;;2.22;;
74471;SDS011;62920;53.572;10.050;2022-11-20T04:19:48;5.28;;;2.38;;
74471;SDS011;62920;53.572;10.050;2022-11-20T04:22:13;4.20;;;2.03;;
74471;SDS011;62920;53.572;10.050;2022-11-20T04:24:38;6.60;;;2.22;;
74471;SDS011;62920;53.572;10.050;2022-11-20T04:27:04;6.78;;;2.80;;
74471;SDS011;62920;53.572;10.050;2022-11-20T04:29:29;5.32;;;2.40;;
74471;SDS011;62920;53.572;10.050;2022-11-20T04:31:54;5.35;;;2.47;;
74471;SDS011;62920;53.572;10.050;2022-11-20T04:34:20;4.72;;;2.20;;
74471;SDS011;62920;53.572;10.050;2022-11-20T04:36:45;4.60;;;2.20;;
74471;SDS011;62920;53.572;10.050;2022-11-20T04:39:11;4.82;;;2.33;;
74471;SDS011;62920;53.572;10.050;2022-11-20T04:41:38;7.22;;;2.20;;
74471;SDS011;62920;53.572;10.050;2022-11-20T04:44:04;5.32;;;2.85;;
74471;SDS011;62920;53.572;10.050;2022-11-20T04:46:34;6.18;;;2.58;;
74471;SDS011;62920;53.572;10.050;2022-11-20T04:49:01;4.40;;;2.40;;
74471;SDS011;62920;53.572;10.050;2022-11-20T04:51:27;4.75;;;2.40;;
74471;SDS011;62920;53.572;10.050;2022-11-20T04:53:52;4.72;;;2.38;;
74471;SDS011;62920;53.572;10.050;2022-11-20T04:56:18;5.05;;;2.30;;
74471;SDS011;62920;53.572;10.050;2022-11-20T04:58:43;5.63;;;2.10;;
74471;SDS011;62920;53.572;10.050;2022-11-20T05:01:13;6.88;;;2.03;;
74471;SDS011;62920;53.572;10.050;2022-11-20T05:03:40;8.00;;;2.80;;
74471;SDS011;62920;53.572;10.050;2022-11-20T05:06:06;5.82;;;2.00;;
74471;SDS011;62920;53.572;10.050;2022-11-20T05:08:32;4.88;;;2.17;;
74471;SDS011;62920;53.572;10.050;2022-11-20T05:11:02;4.35;;;2.35;;
74471;SDS011;62920;53.572;10.050;2022-11-20T05:13:38;4.47;;;2.08;;
74471;SDS011;62920;53.572;10.050;2022-11-20T05:16:08;5.88;;;2.10;;
74471;SDS011;62920;53.572;10.050;2022-11-20T05:18:35;4.07;;;1.98;;
74471;SDS011;62920;53.572;10.050;2022-11-20T05:21:01;5.18;;;2.30;;
74471;SDS011;62920;53.572;10.050;2022-11-20T05:23:27;5.43;;;2.33;;
74471;SDS011;62920;53.572;10.050;2022-11-20T05:25:56;7.05;;;2.35;;
74471;SDS011;62920;53.572;10.050;2022-11-20T05:28:22;6.50;;;2.42;;
74471;SDS011;62920;53.572;10.050;2022-11-20T05:30:47;5.88;;;2.30;;
74471;SDS011;62920;53.572;10.050;2022-11-20T05:33:13;5.28;;;2.30;;
74471;SDS011;62920;53.572;10.050;2022-11-20T05:35:39;4.80;;;1.92;;
74471;SDS011;62920;53.572;10.050;2022-11-20T05:38:04;5.05;;;2.25;;
74471;SDS011;62920;53.572;10.050;2022-11-20T05:40:30;4.85;;;2.22;;
74471;SDS011;62920;53.572;10.050;2022-11-20T05:42:55;4.45;;;2.00;;
74471;SDS011;62920;53.572;10.050;2022-11-20T05:45:20;5.47;;;2.75;;
74471;SDS011;62920;53.572;10.050;2022-11-20T05:47:46;6.07;;;2.60;;
74471;SDS011;62920;53.572;10.050;2022-11-20T05:50:11;4.30;;;2.53;;
74471;SDS011;62920;53.572;10.050;2022-11-20T05:52:37;5.53;;;2.90;;
74471;SDS011;62920;53.572;10.050;2022-11-20T05:55:02;5.68;;;2.38;;
74471;SDS011;62920;53.572;10.050;2022-11-20T05:57:28;5.00;;;2.33;;
74471;SDS011;62920;53.572;10.050;2022-11-20T05:59:53;5.13;;;2.45;;
74471;SDS011;62920;53.572;10.050;2022-11-20T06:02:18;4.78;;;2.13;;
74471;SDS011;62920;53.572;10.050;2022-11-20T06:04:44;4.47;;;2.30;;
74471;SDS011;62920;53.572;10.050;2022-11-20T06:07:09;4.20;;;1.98;;
74471;SDS011;62920;53.572;10.050;2022-11-20T06:09:35;6.18;;;3.00;;
74471;SDS011;62920;53.572;10.050;2022-11-20T06:12:00;5.78;;;2.53;;
74471;SDS011;62920;53.572;10.050;2022-11-20T06:14:25;5.13;;;2.50;;
74471;SDS011;62920;53.572;10.050;2022-11-20T06:16:51;5.50;;;2.67;;
74471;SDS011;62920;53.572;10.050;2022-11-20T06:19:16;5.40;;;2.50;;
74471;SDS011;62920;53.572;10.050;2022-11-20T06:21:41;5.20;;;2.70;;
74471;SDS011;62920;53.572;10.050;2022-11-20T06:24:08;6.75;;;2.78;;
74471;SDS011;62920;53.572;10.050;2022-11-20T06:26:34;7.03;;;3.45;;
74471;SDS011;62920;53.572;10.050;2022-11-20T06:28:59;8.88;;;4.20;;
74471;SDS011;62920;53.572;10.050;2022-11-20T06:31:25;6.28;;;3.38;;
74471;SDS011;62920;53.572;10.050;2022-11-20T06:33:51;8.48;;;4.20;;
74471;SDS011;62920;53.572;10.050;2022-11-20T06:36:17;7.13;;;4.07;;
74471;SDS011;62920;53.572;10.050;2022-11-20T06:38:44;9.93;;;4.43;;
74471;SDS011;62920;53.572;10.050;2022-11-20T06:41:10;8.63;;;4.40;;
74471;SDS011;62920;53.572;10.050;2022-11-20T06:43:43;8.77;;;4.35;;
74471;SDS011;62920;53.572;10.050;2022-11-20T06:46:09;7.95;;;4.28;;
74471;SDS011;62920;53.572;10.050;2022-11-20T06:48:36;8.35;;;4.93;;
74471;SDS011;62920;53.572;10.050;2022-11-20T06:51:05;10.93;;;4.22;;
74471;SDS011;62920;53.572;10.050;2022-11-20T06:53:31;8.27;;;4.60;;
74471;SDS011;62920;53.572;10.050;2022-11-20T06:55:57;8.15;;;3.97;;
74471;SDS011;62920;53.572;10.050;2022-11-20T06:58:29;8.20;;;4.13;;
74471;SDS011;62920;53.572;10.050;2022-11-20T07:00:58;10.48;;;4.03;;
74471;SDS011;62920;53.572;10.050;2022-11-20T07:03:24;7.10;;;3.53;;
74471;SDS011;62920;53.572;10.050;2022-11-20T07:05:49;6.55;;;3.53;;
74471;SDS011;62920;53.572;10.050;2022-11-20T07:08:15;5.53;;;2.95;;
74471;SDS011;62920;53.572;10.050;2022-11-20T07:10:40;7.97;;;3.95;;
74471;SDS011;62920;53.572;10.050;2022-11-20T07:13:06;6.75;;;3.83;;
74471;SDS011;62920;53.572;10.050;2022-11-20T07:15:32;5.25;;;3.05;;
74471;SDS011;62920;53.572;10.050;2022-11-20T07:18:01;8.77;;;3.75;;
74471;SDS011;62920;53.572;10.050;2022-11-20T07:20:26;5.68;;;3.00;;
74471;SDS011;62920;53.572;10.050;2022-11-20T07:22:55;6.88;;;3.42;;
74471;SDS011;62920;53.572;10.050;2022-11-20T07:25:21;6.43;;;3.00;;
74471;SDS011;62920;53.572;10.050;2022-11-20T07:27:47;6.70;;;3.15;;
74471;SDS011;62920;53.572;10.050;2022-11-20T07:30:13;7.53;;;2.92;;
74471;SDS011;62920;53.572;10.050;2022-11-20T07:32:39;7.13;;;2.75;;
74471;SDS011;62920;53.572;10.050;2022-11-20T07:35:04;5.68;;;2.75;;
74471;SDS011;62920;53.572;10.050;2022-11-20T07:37:30;4.32;;;2.25;;
74471;SDS011;62920;53.572;10.050;2022-11-20T07:39:59;7.80;;;2.38;;
74471;SDS011;62920;53.572;10.050;2022-11-20T07:42:24;4.78;;;2.47;;
74471;SDS011;62920;53.572;10.050;2022-11-20T07:44:49;4.80;;;2.53;;
74471;SDS011;62920;53.572;10.050;2022-11-20T07:47:15;6.72;;;2.90;;
74471;SDS011;62920;53.572;10.050;2022-11-20T07:49:40;6.13;;;2.53;;
74471;SDS011;62920;53.572;10.050;2022-11-20T07:52:05;6.30;;;2.83;;
74471;SDS011;62920;53.572;10.050;2022-11-20T07:54:31;7.30;;;3.20;;
74471;SDS011;62920;53.572;10.050;2022-11-20T07:56:56;6.25;;;3.00;;
74471;SDS011;62920;53.572;10.050;2022-11-20T07:59:22;5.70;;;2.80;;
74471;SDS011;62920;53.572;10.050;2022-11-20T08:01:47;6.78;;;2.85;;
74471;SDS011;62920;53.572;10.050;2022-11-20T08:04:12;5.15;;;2.63;;
74471;SDS011;62920;53.572;10.050;2022-11-20T08:06:40;6.57;;;2.53;;
74471;SDS011;62920;53.572;10.050;2022-11-20T08:09:05;6.65;;;3.25;;
74471;SDS011;62920;53.572;10.050;2022-11-20T08:11:30;7.35;;;2.88;;
74471;SDS011;62920;53.572;10.050;2022-11-20T08:14:14;6.43;;;3.33;;
74471;SDS011;62920;53.572;10.050;2022-11-20T08:16:44;10.63;;;3.58;;
74471;SDS011;62920;53.572;10.050;2022-11-20T08:19:11;5.85;;;3.30;;
74471;SDS011;62920;53.572;10.050;2022-11-20T08:21:37;6.70;;;2.67;;
74471;SDS011;62920;53.572;10.050;2022-11-20T08:24:03;5.43;;;2.95;;
74471;SDS011;62920;53.572;10.050;2022-11-20T08:26:29;6.25;;;2.70;;
74471;SDS011;62920;53.572;10.050;2022-11-20T08:28:55;4.53;;;2.10;;
74471;SDS011;62920;53.572;10.050;2022-11-20T08:31:21;4.75;;;2.40;;
74471;SDS011;62920;53.572;10.050;2022-11-20T08:33:47;4.85;;;2.25;;
74471;SDS011;62920;53.572;10.050;2022-11-20T08:36:12;5.43;;;3.05;;
74471;SDS011;62920;53.572;10.050;2022-11-20T08:38:38;6.55;;;2.45;;
74471;SDS011;62920;53.572;10.050;2022-11-20T08:41:04;5.03;;;2.03;;
74471;SDS011;62920;53.572;10.050;2022-11-20T08:44:09;3.65;;;1.90;;
74471;SDS011;62920;53.572;10.050;2022-11-20T08:46:35;3.95;;;1.80;;
74471;SDS011;62920;53.572;10.050;2022-11-20T08:49:02;4.95;;;1.80;;
74471;SDS011;62920;53.572;10.050;2022-11-20T08:51:28;3.95;;;2.13;;
74471;SDS011;62920;53.572;10.050;2022-11-20T08:53:54;4.03;;;1.88;;
74471;SDS011;62920;53.572;10.050;2022-11-20T08:56:19;3.95;;;2.13;;
74471;SDS011;62920;53.572;10.050;2022-11-20T08:58:44;5.25;;;1.63;;
74471;SDS011;62920;53.572;10.050;2022-11-20T09:01:10;5.40;;;1.90;;
74471;SDS011;62920;53.572;10.050;2022-11-20T09:03:35;4.82;;;1.90;;
74471;SDS011;62920;53.572;10.050;2022-11-20T09:06:02;4.03;;;2.42;;
74471;SDS011;62920;53.572;10.050;2022-11-20T09:08:30;4.07;;;1.90;;
74471;SDS011;62920;53.572;10.050;2022-11-20T09:10:55;4.82;;;1.92;;
74471;SDS011;62920;53.572;10.050;2022-11-20T09:13:21;4.43;;;2.13;;
74471;SDS011;62920;53.572;10.050;2022-11-20T09:15:52;5.68;;;2.25;;
74471;SDS011;62920;53.572;10.050;2022-11-20T09:18:21;4.05;;;1.85;;
74471;SDS011;62920;53.572;10.050;2022-11-20T09:20:47;4.78;;;2.22;;
74471;SDS011;62920;53.572;10.050;2022-11-20T09:23:12;3.70;;;1.90;;
74471;SDS011;62920;53.572;10.050;2022-11-20T09:25:38;3.65;;;1.75;;
74471;SDS011;62920;53.572;10.050;2022-11-20T09:28:03;4.65;;;2.58;;
74471;SDS011;62920;53.572;10.050;2022-11-20T09:30:28;4.65;;;2.50;;
74471;SDS011;62920;53.572;10.050;2022-11-20T09:32:54;8.65;;;4.22;;
74471;SDS011;62920;53.572;10.050;2022-11-20T09:35:19;4.65;;;2.38;;
74471;SDS011;62920;53.572;10.050;2022-11-20T09:37:45;4.90;;;2.45;;
74471;SDS011;62920;53.572;10.050;2022-11-20T09:40:23;4.68;;;2.35;;
74471;SDS011;62920;53.572;10.050;2022-11-20T09:50:52;4.80;;;2.53;;
74471;SDS011;62920;53.572;10.050;2022-11-20T09:53:35;4.28;;;2.28;;
74471;SDS011;62920;53.572;10.050;2022-11-20T09:56:10;5.03;;;1.92;;
74471;SDS011;62920;53.572;10.050;2022-11-20T09:58:43;4.47;;;2.17;;
74471;SDS011;62920;53.572;10.050;2022-11-20T10:01:15;4.30;;;1.90;;
74471;SDS011;62920;53.572;10.050;2022-11-20T10:06:15;5.00;;;2.30;;
74471;SDS011;62920;53.572;10.050;2022-11-20T10:08:48;4.05;;;1.80;;
74471;SDS011;62920;53.572;10.050;2022-11-20T10:19:51;5.13;;;2.20;;
74471;SDS011;62920;53.572;10.050;2022-11-20T10:25:33;4.88;;;2.58;;
74471;SDS011;62920;53.572;10.050;2022-11-20T10:30:41;4.50;;;2.03;;
74471;SDS011;62920;53.572;10.050;2022-11-20T10:33:19;4.38;;;2.08;;
74471;SDS011;62920;53.572;10.050;2022-11-20T10:35:55;4.75;;;2.47;;
74471;SDS011;62920;53.572;10.050;2022-11-20T10:39:06;4.43;;;2.45;;
74471;SDS011;62920;53.572;10.050;2022-11-20T10:41:40;4.75;;;2.20;;
74471;SDS011;62920;53.572;10.050;2022-11-20T10:44:49;5.82;;;2.50;;
74471;SDS011;62920;53.572;10.050;2022-11-20T10:47:14;5.07;;;2.47;;
74471;SDS011;62920;53.572;10.050;2022-11-20T10:49:41;6.43;;;2.22;;
74471;SDS011;62920;53.572;10.050;2022-11-20T10:52:30;5.80;;;2.30;;
74471;SDS011;62920;53.572;10.050;2022-11-20T10:58:00;4.20;;;2.13;;
74471;SDS011;62920;53.572;10.050;2022-11-20T11:00:50;4.63;;;2.33;;
74471;SDS011;62920;53.572;10.050;2022-11-20T11:03:28;3.80;;;1.92;;
74471;SDS011;62920;53.572;10.050;2022-11-20T11:06:03;4.03;;;2.03;;
74471;SDS011;62920;53.572;10.050;2022-11-20T11:08:34;3.80;;;2.00;;
74471;SDS011;62920;53.572;10.050;2022-11-20T11:11:02;4.03;;;2.00;;
74471;SDS011;62920;53.572;10.050;2022-11-20T11:13:35;4.28;;;2.20;;
74471;SDS011;62920;53.572;10.050;2022-11-20T11:16:00;4.22;;;2.22;;
74471;SDS011;62920;53.572;10.050;2022-11-20T11:18:27;4.93;;;2.00;;
74471;SDS011;62920;53.572;10.050;2022-11-20T11:20:57;4.18;;;1.95;;
74471;SDS011;62920;53.572;10.050;2022-11-20T11:23:34;5.22;;;2.50;;
74471;SDS011;62920;53.572;10.050;2022-11-20T11:26:01;3.67;;;2.13;;
74471;SDS011;62920;53.572;10.050;2022-11-20T11:28:28;3.85;;;2.28;;
74471;SDS011;62920;53.572;10.050;2022-11-20T11:30:54;4.65;;;2.10;;
74471;SDS011;62920;53.572;10.050;2022-11-20T11:33:21;4.25;;;2.25;;
74471;SDS011;62920;53.572;10.050;2022-11-20T11:35:50;5.43;;;2.90;;
74471;SDS011;62920;53.572;10.050;2022-11-20T11:41:02;5.40;;;2.63;;
74471;SDS011;62920;53.572;10.050;2022-11-20T11:43:30;4.10;;;2.05;;
74471;SDS011;62920;53.572;10.050;2022-11-20T11:46:32;3.70;;;1.80;;
74471;SDS011;62920;53.572;10.050;2022-11-20T11:48:59;3.45;;;1.67;;
74471;SDS011;62920;53.572;10.050;2022-11-20T11:53:59;2.45;;;1.27;;
74471;SDS011;62920;53.572;10.050;2022-11-20T11:56:26;5.32;;;2.20;;
74471;SDS011;62920;53.572;10.050;2022-11-20T11:58:53;3.67;;;1.60;;
74471;SDS011;62920;53.572;10.050;2022-11-20T12:04:11;3.20;;;1.58;;
74471;SDS011;62920;53.572;10.050;2022-11-20T12:06:43;2.92;;;1.40;;
74471;SDS011;62920;53.572;10.050;2022-11-20T12:09:10;4.35;;;1.55;;
74471;SDS011;62920;53.572;10.050;2022-11-20T12:14:19;3.00;;;1.33;;
74471;SDS011;62920;53.572;10.050;2022-11-20T12:16:51;4.45;;;1.70;;
74471;SDS011;62920;53.572;10.050;2022-11-20T12:19:18;3.65;;;1.80;;
74471;SDS011;62920;53.572;10.050;2022-11-20T12:30:35;4.82;;;1.80;;
74471;SDS011;62920;53.572;10.050;2022-11-20T12:35:57;3.08;;;1.42;;
74471;SDS011;62920;53.572;10.050;2022-11-20T12:44:36;2.50;;;1.10;;
74471;SDS011;62920;53.572;10.050;2022-11-20T12:50:02;3.50;;;1.50;;
74471;SDS011;62920;53.572;10.050;2022-11-20T12:52:51;3.85;;;2.10;;
74471;SDS011;62920;53.572;10.050;2022-11-20T13:07:02;3.58;;;1.60;;
74471;SDS011;62920;53.572;10.050;2022-11-20T13:09:30;3.35;;;1.67;;
74471;SDS011;62920;53.572;10.050;2022-11-20T13:14:45;3.28;;;1.77;;
74471;SDS011;62920;53.572;10.050;2022-11-20T13:20:05;3.05;;;1.50;;
74471;SDS011;62920;53.572;10.050;2022-11-20T13:25:29;3.80;;;1.58;;
74471;SDS011;62920;53.572;10.050;2022-11-20T13:30:50;3.17;;;1.40;;
74471;SDS011;62920;53.572;10.050;2022-11-20T13:33:36;5.07;;;2.00;;
74471;SDS011;62920;53.572;10.050;2022-11-20T13:36:07;3.40;;;1.60;;
74471;SDS011;62920;53.572;10.050;2022-11-20T13:38:47;2.90;;;1.30;;
74471;SDS011;62920;53.572;10.050;2022-11-20T13:41:25;4.68;;;2.00;;
74471;SDS011;62920;53.572;10.050;2022-11-20T13:46:40;3.90;;;1.88;;
74471;SDS011;62920;53.572;10.050;2022-11-20T13:49:09;3.55;;;2.10;;
74471;SDS011;62920;53.572;10.050;2022-11-20T13:51:43;3.83;;;1.85;;
74471;SDS011;62920;53.572;10.050;2022-11-20T13:54:38;4.07;;;2.15;;
74471;SDS011;62920;53.572;10.050;2022-11-20T14:02:23;3.60;;;1.95;;
74471;SDS011;62920;53.572;10.050;2022-11-20T14:04:51;4.30;;;1.80;;
74471;SDS011;62920;53.572;10.050;2022-11-20T14:07:18;3.38;;;1.80;;
74471;SDS011;62920;53.572;10.050;2022-11-20T14:09:50;4.85;;;1.50;;
74471;SDS011;62920;53.572;10.050;2022-11-20T14:12:18;5.10;;;1.80;;
74471;SDS011;62920;53.572;10.050;2022-11-20T14:14:52;3.22;;;1.90;;
74471;SDS011;62920;53.572;10.050;2022-11-20T14:17:40;3.45;;;1.73;;
74471;SDS011;62920;53.572;10.050;2022-11-20T14:20:06;3.40;;;1.88;;
74471;SDS011;62920;53.572;10.050;2022-11-20T14:22:36;3.88;;;2.00;;
74471;SDS011;62920;53.572;10.050;2022-11-20T14:27:40;2.92;;;1.33;;
74471;SDS011;62920;53.572;10.050;2022-11-20T14:30:17;3.35;;;1.60;;
74471;SDS011;62920;53.572;10.050;2022-11-20T14:32:44;4.25;;;2.33;;
74471;SDS011;62920;53.572;10.050;2022-11-20T14:35:13;3.95;;;1.95;;
74471;SDS011;62920;53.572;10.050;2022-11-20T14:37:44;4.28;;;1.88;;
74471;SDS011;62920;53.572;10.050;2022-11-20T14:40:29;4.07;;;2.05;;
74471;SDS011;62920;53.572;10.050;2022-11-20T14:42:56;3.55;;;2.10;;
74471;SDS011;62920;53.572;10.050;2022-11-20T14:45:22;4.65;;;2.03;;
74471;SDS011;62920;53.572;10.050;2022-11-20T14:47:49;4.97;;;2.45;;
74471;SDS011;62920;53.572;10.050;2022-11-20T14:50:18;3.67;;;1.58;;
74471;SDS011;62920;53.572;10.050;2022-11-20T14:52:51;4.85;;;1.63;;
74471;SDS011;62920;53.572;10.050;2022-11-20T14:55:34;4.38;;;1.95;;
74471;SDS011;62920;53.572;10.050;2022-11-20T14:58:06;3.20;;;1.77;;
74471;SDS011;62920;53.572;10.050;2022-11-20T15:00:44;6.85;;;2.20;;
74471;SDS011;62920;53.572;10.050;2022-11-20T15:03:37;4.25;;;2.00;;
74471;SDS011;62920;53.572;10.050;2022-11-20T15:06:04;5.10;;;1.77;;
74471;SDS011;62920;53.572;10.050;2022-11-20T15:08:31;3.90;;;2.00;;
74471;SDS011;62920;53.572;10.050;2022-11-20T15:10:56;4.07;;;1.90;;
74471;SDS011;62920;53.572;10.050;2022-11-20T15:16:01;4.28;;;1.65;;
74471;SDS011;62920;53.572;10.050;2022-11-20T15:18:29;4.35;;;2.22;;
74471;SDS011;62920;53.572;10.050;2022-11-20T15:20:58;5.20;;;2.50;;
74471;SDS011;62920;53.572;10.050;2022-11-20T15:23:26;5.60;;;2.22;;
74471;SDS011;62920;53.572;10.050;2022-11-20T15:25:52;4.03;;;1.80;;
74471;SDS011;62920;53.572;10.050;2022-11-20T15:30:47;5.05;;;2.35;;
74471;SDS011;62920;53.572;10.050;2022-11-20T15:33:13;4.05;;;1.90;;
74471;SDS011;62920;53.572;10.050;2022-11-20T15:35:39;4.45;;;2.20;;
74471;SDS011;62920;53.572;10.050;2022-11-20T15:38:04;5.65;;;2.17;;
74471;SDS011;62920;53.572;10.050;2022-11-20T15:40:30;4.68;;;2.10;;
74471;SDS011;62920;53.572;10.050;2022-11-20T15:42:55;4.13;;;1.67;;
74471;SDS011;62920;53.572;10.050;2022-11-20T15:45:43;3.70;;;2.05;;
74471;SDS011;62920;53.572;10.050;2022-11-20T15:53:35;3.58;;;1.60;;
74471;SDS011;62920;53.572;10.050;2022-11-20T15:56:01;4.55;;;1.50;;
74471;SDS011;62920;53.572;10.050;2022-11-20T15:58:27;3.10;;;1.50;;
74471;SDS011;62920;53.572;10.050;2022-11-20T16:00:52;3.30;;;1.50;;
74471;SDS011;62920;53.572;10.050;2022-11-20T16:03:18;2.83;;;1.40;;
74471;SDS011;62920;53.572;10.050;2022-11-20T16:05:44;3.22;;;1.67;;
74471;SDS011;62920;53.572;10.050;2022-11-20T16:08:09;5.57;;;2.08;;
74471;SDS011;62920;53.572;10.050;2022-11-20T16:10:35;4.25;;;2.10;;
74471;SDS011;62920;53.572;10.050;2022-11-20T16:13:00;4.25;;;1.90;;
74471;SDS011;62920;53.572;10.050;2022-11-20T16:15:45;4.18;;;2.13;;
74471;SDS011;62920;53.572;10.050;2022-11-20T16:18:17;6.78;;;2.40;;
74471;SDS011;62920;53.572;10.050;2022-11-20T16:20:44;5.25;;;2.70;;
74471;SDS011;62920;53.572;10.050;2022-11-20T16:23:11;5.70;;;2.83;;
74471;SDS011;62920;53.572;10.050;2022-11-20T16:25:36;5.22;;;2.85;;
74471;SDS011;62920;53.572;10.050;2022-11-20T16:28:02;4.75;;;2.38;;
74471;SDS011;62920;53.572;10.050;2022-11-20T16:30:28;7.63;;;2.70;;
74471;SDS011;62920;53.572;10.050;2022-11-20T16:32:53;5.47;;;2.72;;
74471;SDS011;62920;53.572;10.050;2022-11-20T16:35:19;5.35;;;2.40;;